Time;durP1;ratioP1;P1;durP2;ratioP2;P2;SDS_P1;SDS_P2;PMS_P1;PMS_P2;Temp;Humidity;BMP_temperature;BMP_pressure;BME280_temperature;BME280_humidity;BME280_pressure;Samples;Min_cycle;Max_cycle;Signal;HPM_P1;HPM_P2
2022/04/03 00:02:21;;;;;;;0.88;0.73;;;-0.30;96.40;;;;;;5062214;28;20135;-71
2022/04/03 00:04:46;;;;;;;1.23;0.70;;;-0.40;96.50;;;;;;5034739;28;20152;-71
2022/04/03 00:07:12;;;;;;;6.72;1.17;;;-0.40;96.70;;;;;;5055591;28;20167;-71
2022/04/03 00:09:38;;;;;;;1.95;1.02;;;-0.40;96.80;;;;;;5040216;28;20044;-71
2022/04/03 00:12:04;;;;;;;1.88;0.82;;;-0.40;96.90;;;;;;5044462;28;20044;-71
2022/04/03 00:14:29;;;;;;;1.13;0.68;;;-0.40;96.90;;;;;;5063304;28;20044;-71
2022/04/03 00:16:55;;;;;;;2.28;0.68;;;-0.50;96.80;;;;;;5029928;28;20029;-71
2022/04/03 00:19:21;;;;;;;0.40;0.35;;;-0.50;97.30;;;;;;5052743;28;20409;-71
2022/04/03 00:21:46;;;;;;;1.20;0.70;;;-0.40;97.40;;;;;;5040399;28;20075;-71
2022/04/03 00:24:12;;;;;;;1.27;0.60;;;-0.40;97.30;;;;;;5040575;28;20426;-71
2022/04/03 00:26:38;;;;;;;1.75;0.77;;;-0.50;97.50;;;;;;5036290;28;20451;-71
2022/04/03 00:29:04;;;;;;;0.85;0.75;;;-0.50;97.40;;;;;;5033279;28;20542;-71
2022/04/03 00:31:29;;;;;;;0.70;0.70;;;-0.50;97.30;;;;;;5026433;28;20511;-71
2022/04/03 00:33:55;;;;;;;0.90;0.50;;;-0.60;97.20;;;;;;5044331;28;20148;-71
2022/04/03 00:36:21;;;;;;;0.95;0.63;;;-0.70;97.60;;;;;;5018711;28;20040;-71
2022/04/03 00:38:47;;;;;;;0.70;0.55;;;-0.70;98.20;;;;;;5031518;28;20487;-71
2022/04/03 00:41:14;;;;;;;2.00;0.63;;;-0.70;98.40;;;;;;5031146;28;20036;-71
2022/04/03 00:43:40;;;;;;;1.77;0.73;;;-0.70;98.20;;;;;;5036126;28;20041;-71
2022/04/03 00:46:07;;;;;;;1.05;0.60;;;-0.60;98.10;;;;;;5023984;28;20083;-71
2022/04/03 00:48:33;;;;;;;0.77;0.63;;;-0.70;98.60;;;;;;5032600;28;20045;-71
2022/04/03 00:50:59;;;;;;;1.48;1.00;;;-0.70;98.20;;;;;;5038395;28;20550;-71
2022/04/03 00:53:24;;;;;;;2.45;0.85;;;-0.70;98.10;;;;;;5039937;28;20091;-71
2022/04/03 00:55:50;;;;;;;0.52;0.30;;;-0.80;98.30;;;;;;5043283;28;20037;-71
2022/04/03 00:58:17;;;;;;;6.78;1.23;;;-0.90;98.30;;;;;;5035453;28;20118;-71
2022/04/03 01:00:42;;;;;;;1.77;0.88;;;-0.90;98.40;;;;;;5024328;28;20501;-71
2022/04/03 01:03:08;;;;;;;1.13;0.75;;;-1.00;98.50;;;;;;5037097;28;20045;-71
2022/04/03 01:05:35;;;;;;;1.20;0.60;;;-0.90;99.00;;;;;;5043763;28;20560;-71
2022/04/03 01:08:01;;;;;;;0.55;0.55;;;-1.00;98.70;;;;;;5044615;28;20091;-71
2022/04/03 01:10:27;;;;;;;2.08;0.93;;;-1.00;99.40;;;;;;5022728;28;20897;-71
2022/04/03 01:12:52;;;;;;;1.80;0.90;;;-1.00;99.70;;;;;;5042894;28;20207;-71
2022/04/03 01:15:19;;;;;;;1.58;0.93;;;-0.90;99.60;;;;;;5038078;28;20601;-71
2022/04/03 01:17:44;;;;;;;0.75;0.75;;;-0.90;99.80;;;;;;5045236;28;20051;-71
2022/04/03 01:20:10;;;;;;;0.70;0.60;;;-0.90;99.60;;;;;;5044292;28;20048;-71
2022/04/03 01:22:37;;;;;;;1.60;1.15;;;-0.90;99.70;;;;;;5044569;28;20528;-71
2022/04/03 01:25:04;;;;;;;1.08;0.57;;;-0.90;99.50;;;;;;5026291;28;20088;-71
2022/04/03 01:27:30;;;;;;;0.57;0.57;;;-0.90;99.80;;;;;;5051892;28;20060;-71
2022/04/03 01:29:57;;;;;;;0.40;0.40;;;-0.90;99.80;;;;;;5027736;28;20045;-71
2022/04/03 01:32:23;;;;;;;2.05;0.95;;;-0.90;99.60;;;;;;5019327;28;20570;-71
2022/04/03 01:34:49;;;;;;;0.75;0.52;;;-0.90;99.90;;;;;;5036583;28;20037;-71
2022/04/03 01:37:14;;;;;;;1.27;0.77;;;-0.90;99.90;;;;;;5054662;28;20039;-71
2022/04/03 01:39:40;;;;;;;0.75;0.40;;;-0.90;99.90;;;;;;5044044;28;20410;-71
2022/04/03 01:42:06;;;;;;;6.65;0.52;;;-0.90;99.90;;;;;;5045512;28;20037;-71
2022/04/03 01:44:31;;;;;;;1.25;0.80;;;-0.90;99.90;;;;;;5045430;28;20041;-71
2022/04/03 01:46:57;;;;;;;1.77;0.60;;;-0.90;99.90;;;;;;5045752;28;20047;-71
2022/04/03 01:49:23;;;;;;;2.10;0.82;;;-0.90;99.90;;;;;;5050913;28;20073;-71
2022/04/03 01:51:49;;;;;;;0.68;0.38;;;-0.90;99.90;;;;;;5027312;28;20072;-71
2022/04/03 01:54:14;;;;;;;0.47;0.43;;;-0.90;99.90;;;;;;5045733;28;20099;-71
2022/04/03 01:56:40;;;;;;;0.40;0.30;;;-0.90;99.90;;;;;;5045605;28;20087;-71
2022/04/03 01:59:06;;;;;;;0.47;0.47;;;-0.90;99.90;;;;;;5060795;28;20041;-71
2022/04/03 02:01:33;;;;;;;4.78;1.27;;;-0.90;99.90;;;;;;5048913;28;20040;-71
2022/04/03 02:03:58;;;;;;;1.52;0.65;;;-0.90;99.90;;;;;;5046171;28;20087;-71
2022/04/03 02:06:24;;;;;;;1.77;0.50;;;-0.90;99.90;;;;;;5031839;28;20072;-71
2022/04/03 02:08:50;;;;;;;1.85;0.85;;;-0.90;99.90;;;;;;5050927;28;20044;-71
2022/04/03 02:11:15;;;;;;;0.75;0.52;;;-1.00;99.90;;;;;;5051790;28;20033;-71
2022/04/03 02:13:41;;;;;;;0.70;0.25;;;-1.00;99.90;;;;;;5041225;28;20524;-71
2022/04/03 02:16:09;;;;;;;1.17;0.60;;;-1.00;99.90;;;;;;5048712;28;20053;-71
2022/04/03 02:18:35;;;;;;;1.05;0.28;;;-1.00;99.90;;;;;;5057291;28;20200;-71
2022/04/03 02:21:01;;;;;;;1.30;0.45;;;-1.00;99.90;;;;;;5065328;28;20432;-71
2022/04/03 02:23:26;;;;;;;2.00;1.23;;;-1.00;99.90;;;;;;5041243;28;20115;-71
2022/04/03 02:25:52;;;;;;;1.00;0.65;;;-1.00;99.90;;;;;;5034940;28;20561;-71
2022/04/03 02:28:19;;;;;;;0.63;0.63;;;-1.00;99.90;;;;;;5048698;28;20049;-72
2022/04/03 02:30:45;;;;;;;1.42;0.85;;;-1.00;99.90;;;;;;5065148;28;20498;-71
2022/04/03 02:33:11;;;;;;;1.60;0.98;;;-0.90;99.90;;;;;;5044689;28;20047;-71
2022/04/03 02:35:37;;;;;;;1.15;0.82;;;-0.90;99.90;;;;;;5049871;28;20040;-71
2022/04/03 02:38:02;;;;;;;1.88;1.02;;;-0.90;99.90;;;;;;5045299;28;20048;-71
2022/04/03 02:40:28;;;;;;;1.83;0.73;;;-0.90;99.90;;;;;;5033622;28;20052;-71
2022/04/03 02:42:54;;;;;;;1.15;0.70;;;-0.90;99.90;;;;;;5043419;28;20067;-71
2022/04/03 02:45:19;;;;;;;0.73;0.50;;;-1.00;99.90;;;;;;5043189;28;20084;-71
2022/04/03 02:47:53;;;;;;;0.80;0.60;;;-1.00;99.90;;;;;;5037320;28;20029;-71
2022/04/03 02:50:20;;;;;;;1.85;0.70;;;-1.00;99.90;;;;;;5047170;28;20126;-71
2022/04/03 02:52:51;;;;;;;0.65;0.60;;;-1.10;99.90;;;;;;5051029;28;20115;-71
2022/04/03 02:55:17;;;;;;;0.80;0.40;;;-1.10;99.90;;;;;;5043965;28;20044;-71
2022/04/03 02:57:43;;;;;;;0.82;0.57;;;-1.10;99.90;;;;;;5042638;28;20033;-71
2022/04/03 03:00:14;;;;;;;0.65;0.40;;;-1.10;99.90;;;;;;5029369;28;20051;-71
2022/04/03 03:02:44;;;;;;;0.60;0.60;;;-1.10;99.90;;;;;;5035482;28;20063;-71
2022/04/03 03:05:13;;;;;;;7.38;0.68;;;-1.10;99.90;;;;;;5037125;28;20044;-71
2022/04/03 03:07:40;;;;;;;0.75;0.55;;;-1.10;99.90;;;;;;5031259;28;20041;-71
2022/04/03 03:10:07;;;;;;;0.68;0.60;;;-1.10;99.90;;;;;;5045274;28;20025;-71
2022/04/03 03:12:33;;;;;;;1.88;0.60;;;-1.00;99.90;;;;;;5038245;28;20041;-71
2022/04/03 03:14:59;;;;;;;1.05;0.75;;;-0.90;99.90;;;;;;5042427;28;20502;-71
2022/04/03 03:17:25;;;;;;;1.65;1.15;;;-0.90;99.90;;;;;;5035319;28;20041;-71
2022/04/03 03:19:51;;;;;;;1.17;0.50;;;-0.90;99.90;;;;;;5032036;28;20827;-71
2022/04/03 03:22:17;;;;;;;1.65;0.68;;;-0.80;99.90;;;;;;5057733;28;20060;-71
2022/04/03 03:24:43;;;;;;;1.13;0.75;;;-0.80;99.90;;;;;;5054419;28;20099;-71
2022/04/03 03:27:08;;;;;;;0.35;0.22;;;-0.70;99.90;;;;;;5046589;28;20045;-72
2022/04/03 03:29:34;;;;;;;2.03;0.98;;;-0.70;99.90;;;;;;5053209;28;20048;-71
2022/04/03 03:32:00;;;;;;;0.95;0.40;;;-0.70;99.90;;;;;;5030730;28;20073;-71
2022/04/03 03:34:25;;;;;;;1.30;0.85;;;-0.60;99.90;;;;;;5039080;28;20045;-72
2022/04/03 03:36:51;;;;;;;2.30;0.88;;;-0.60;99.90;;;;;;5044960;28;20029;-71
2022/04/03 03:39:17;;;;;;;1.10;0.80;;;-0.60;99.90;;;;;;5047425;28;20060;-71
2022/04/03 03:41:43;;;;;;;0.77;0.60;;;-0.50;99.90;;;;;;5041106;28;20041;-71
2022/04/03 03:44:10;;;;;;;1.02;0.80;;;-0.50;99.90;;;;;;5048032;28;20072;-71
2022/04/03 03:46:42;;;;;;;1.48;0.95;;;-0.40;99.90;;;;;;5025380;28;20473;-71
2022/04/03 03:49:08;;;;;;;4.80;0.80;;;-0.40;99.90;;;;;;5043488;28;20037;-71
2022/04/03 03:51:36;;;;;;;1.10;0.55;;;-0.30;99.90;;;;;;5037489;28;20457;-71
2022/04/03 03:54:02;;;;;;;2.30;0.88;;;-0.30;99.90;;;;;;5036517;28;20033;-71
2022/04/03 03:56:27;;;;;;;0.82;0.55;;;-0.20;99.90;;;;;;5035542;28;20098;-71
2022/04/03 03:58:53;;;;;;;1.08;0.45;;;-0.20;99.90;;;;;;5047680;28;20128;-71
2022/04/03 04:01:20;;;;;;;1.58;1.10;;;-0.20;99.90;;;;;;5039723;28;20045;-71
2022/04/03 04:03:46;;;;;;;1.00;0.73;;;-0.20;99.90;;;;;;5058486;28;20041;-71
2022/04/03 04:06:11;;;;;;;0.98;0.65;;;-0.20;99.90;;;;;;5035798;28;20037;-71
2022/04/03 04:08:37;;;;;;;1.25;1.15;;;-0.10;99.90;;;;;;5047085;28;20098;-71
2022/04/03 04:11:03;;;;;;;1.25;0.80;;;-0.10;99.90;;;;;;5045647;28;20515;-71
2022/04/03 04:13:28;;;;;;;1.23;0.88;;;0.00;99.90;;;;;;5050139;28;20598;-71
2022/04/03 04:15:54;;;;;;;0.75;0.70;;;0.00;99.90;;;;;;5058765;28;20029;-71
2022/04/03 04:18:20;;;;;;;2.25;1.20;;;0.00;99.90;;;;;;5041148;28;20374;-71
2022/04/03 04:20:46;;;;;;;1.92;1.42;;;0.10;99.90;;;;;;5045373;28;20127;-71
2022/04/03 04:23:12;;;;;;;0.90;0.60;;;0.10;99.90;;;;;;5062749;28;20533;-72
2022/04/03 04:25:37;;;;;;;7.03;1.40;;;0.10;99.90;;;;;;5043503;28;20335;-72
2022/04/03 04:28:03;;;;;;;1.63;0.90;;;0.10;99.90;;;;;;5039835;28;20552;-71
2022/04/03 04:30:29;;;;;;;1.75;1.10;;;0.10;99.90;;;;;;5047323;28;20513;-71
2022/04/03 04:32:54;;;;;;;1.15;0.70;;;0.10;99.90;;;;;;5027571;28;20113;-71
2022/04/03 04:35:20;;;;;;;15.77;1.38;;;0.10;99.90;;;;;;5046389;28;20614;-71
2022/04/03 04:37:46;;;;;;;2.05;1.33;;;0.10;99.90;;;;;;5035783;28;20140;-71
2022/04/03 04:40:12;;;;;;;1.13;0.77;;;0.00;99.90;;;;;;5048785;28;20534;-71
2022/04/03 04:42:39;;;;;;;2.78;0.85;;;0.00;99.90;;;;;;5032491;28;20093;-71
2022/04/03 04:45:09;;;;;;;2.85;1.25;;;0.00;99.90;;;;;;5010178;28;20041;-71
2022/04/03 04:47:36;;;;;;;2.47;1.55;;;0.00;99.90;;;;;;5032240;28;20068;-71
2022/04/03 04:50:05;;;;;;;0.90;0.65;;;0.00;99.90;;;;;;5010662;28;20037;-71
2022/04/03 04:52:30;;;;;;;1.30;1.20;;;-0.10;99.90;;;;;;5037104;28;20037;-71
2022/04/03 04:54:56;;;;;;;1.90;1.23;;;-0.10;99.90;;;;;;5046609;28;20052;-72
2022/04/03 04:57:22;;;;;;;0.55;0.47;;;-0.10;99.90;;;;;;5033927;28;20025;-71
2022/04/03 04:59:47;;;;;;;0.68;0.68;;;-0.10;99.90;;;;;;5030630;28;20037;-71
2022/04/03 05:02:13;;;;;;;2.33;1.33;;;-0.10;99.90;;;;;;5044062;28;20041;-71
2022/04/03 05:04:38;;;;;;;1.45;0.80;;;-0.10;99.90;;;;;;5029532;28;20045;-72
2022/04/03 05:07:04;;;;;;;1.38;0.70;;;-0.10;99.90;;;;;;5020862;28;20045;-71
2022/04/03 05:09:31;;;;;;;1.15;0.68;;;-0.10;99.90;;;;;;5031758;28;20038;-71
2022/04/03 05:11:57;;;;;;;2.00;0.90;;;-0.20;99.90;;;;;;5048601;28;20063;-71
2022/04/03 05:14:23;;;;;;;1.67;1.23;;;-0.10;99.90;;;;;;5034229;28;20033;-71
2022/04/03 05:16:49;;;;;;;1.02;0.60;;;-0.20;99.90;;;;;;5035145;28;20506;-71
2022/04/03 05:19:16;;;;;;;4.70;1.10;;;-0.20;99.90;;;;;;5029017;28;20042;-71
2022/04/03 05:21:42;;;;;;;1.50;0.75;;;-0.20;99.90;;;;;;5048100;28;20048;-71
2022/04/03 05:24:08;;;;;;;1.00;0.60;;;-0.10;99.90;;;;;;5041420;28;20045;-72
2022/04/03 05:26:33;;;;;;;1.15;0.50;;;-0.10;99.90;;;;;;5020567;28;20099;-71
2022/04/03 05:28:59;;;;;;;2.22;0.90;;;-0.10;99.90;;;;;;5041110;28;20045;-72
2022/04/03 05:31:26;;;;;;;1.15;1.05;;;-0.10;99.90;;;;;;5033584;28;20049;-71
2022/04/03 05:33:53;;;;;;;1.27;0.75;;;-0.10;99.90;;;;;;5050336;28;20037;-71
2022/04/03 05:36:19;;;;;;;2.22;1.20;;;0.00;99.90;;;;;;5026081;28;20033;-71
2022/04/03 05:38:44;;;;;;;1.88;0.50;;;-0.10;99.90;;;;;;5041051;28;20029;-71
2022/04/03 05:41:10;;;;;;;1.23;0.63;;;-0.10;99.90;;;;;;5032372;28;20041;-71
2022/04/03 05:43:35;;;;;;;0.70;0.40;;;-0.10;99.90;;;;;;5037198;28;20037;-71
2022/04/03 05:46:02;;;;;;;1.00;0.70;;;-0.10;99.90;;;;;;5026174;28;20045;-71
2022/04/03 05:48:28;;;;;;;0.88;0.80;;;-0.10;99.90;;;;;;5059490;28;20041;-71
2022/04/03 05:50:54;;;;;;;3.25;0.93;;;-0.10;99.90;;;;;;5045709;28;20440;-72
2022/04/03 05:53:21;;;;;;;1.88;1.00;;;-0.10;99.90;;;;;;5055945;28;20036;-71
2022/04/03 05:55:47;;;;;;;0.93;0.75;;;-0.10;99.90;;;;;;5027699;28;20498;-71
2022/04/03 05:58:13;;;;;;;2.70;1.20;;;-0.10;99.90;;;;;;5026358;28;20131;-71
2022/04/03 06:00:38;;;;;;;3.78;1.38;;;-0.20;99.90;;;;;;5035133;28;20061;-71
2022/04/03 06:03:04;;;;;;;2.53;1.45;;;-0.20;99.90;;;;;;5042702;28;20125;-71
2022/04/03 06:05:34;;;;;;;0.40;0.30;;;-0.20;99.90;;;;;;5060715;28;20065;-71
2022/04/03 06:08:01;;;;;;;0.50;0.50;;;-0.20;99.90;;;;;;5020142;28;20037;-71
2022/04/03 06:10:27;;;;;;;0.90;0.47;;;-0.20;99.90;;;;;;5036539;28;20087;-71
2022/04/03 06:13:04;;;;;;;1.77;0.82;;;-0.20;99.90;;;;;;5041028;28;20045;-71
2022/04/03 06:15:35;;;;;;;0.82;0.77;;;-0.20;99.90;;;;;;5038221;28;20041;-72
2022/04/03 06:18:07;;;;;;;5.75;1.35;;;-0.10;99.90;;;;;;5032384;28;20037;-72
2022/04/03 06:20:33;;;;;;;1.15;0.80;;;-0.10;99.90;;;;;;5027026;28;20041;-71
2022/04/03 06:22:59;;;;;;;2.10;1.05;;;-0.10;99.90;;;;;;5040279;28;20139;-71
2022/04/03 06:25:25;;;;;;;2.22;0.98;;;0.00;99.90;;;;;;5033809;28;20052;-71
2022/04/03 06:27:52;;;;;;;3.53;0.90;;;0.10;99.90;;;;;;5046480;28;20048;-71
2022/04/03 06:30:18;;;;;;;2.42;1.45;;;0.20;99.90;;;;;;5051787;28;20041;-72
2022/04/03 06:32:44;;;;;;;1.05;0.73;;;0.20;99.90;;;;;;5042591;28;20040;-71
2022/04/03 06:35:10;;;;;;;0.57;0.47;;;0.30;99.90;;;;;;5049719;28;20037;-71
2022/04/03 06:37:36;;;;;;;3.10;0.75;;;0.30;99.90;;;;;;5032999;28;20111;-71
2022/04/03 06:40:03;;;;;;;0.82;0.55;;;0.40;99.90;;;;;;5043478;28;20041;-71
2022/04/03 06:42:30;;;;;;;0.65;0.52;;;0.40;99.90;;;;;;5031904;28;20487;-71
2022/04/03 06:44:56;;;;;;;1.73;1.30;;;0.50;99.90;;;;;;5048604;28;20537;-72
2022/04/03 06:47:22;;;;;;;1.50;0.93;;;0.50;99.90;;;;;;5041886;28;20072;-72
2022/04/03 06:49:48;;;;;;;0.95;0.85;;;0.50;99.90;;;;;;5028062;28;20486;-73
2022/04/03 06:52:13;;;;;;;1.65;0.55;;;0.60;99.90;;;;;;5043650;28;20040;-72
2022/04/03 06:54:39;;;;;;;1.80;0.52;;;0.70;99.90;;;;;;5037362;28;20033;-72
2022/04/03 06:57:06;;;;;;;0.57;0.40;;;0.70;99.90;;;;;;5041652;28;20045;-72
2022/04/03 06:59:32;;;;;;;1.48;0.52;;;0.80;99.90;;;;;;5044510;28;20110;-72
2022/04/03 07:01:57;;;;;;;0.60;0.50;;;0.90;99.90;;;;;;5039243;28;20091;-71
2022/04/03 07:04:23;;;;;;;1.17;0.60;;;1.00;99.90;;;;;;5046342;28;20048;-71
2022/04/03 07:06:48;;;;;;;1.92;0.82;;;1.10;99.90;;;;;;5042554;28;20049;-71
2022/04/03 07:09:14;;;;;;;1.52;0.80;;;1.20;99.90;;;;;;5030267;28;20048;-72
2022/04/03 07:11:40;;;;;;;1.55;0.50;;;1.30;99.90;;;;;;5044054;28;20506;-72
2022/04/03 07:14:05;;;;;;;2.22;1.08;;;1.40;99.90;;;;;;5034997;28;20044;-73
2022/04/03 07:16:31;;;;;;;3.72;1.00;;;1.60;99.90;;;;;;5040353;28;20487;-72
2022/04/03 07:18:57;;;;;;;1.42;0.85;;;1.70;99.90;;;;;;5057388;28;20033;-72
2022/04/03 07:21:23;;;;;;;5.05;0.70;;;1.70;99.90;;;;;;5044102;28;20546;-72
2022/04/03 07:23:49;;;;;;;1.60;0.70;;;1.80;99.90;;;;;;5045069;28;20045;-72
2022/04/03 07:26:15;;;;;;;1.38;0.60;;;1.80;99.90;;;;;;5031810;28;20146;-72
2022/04/03 07:28:41;;;;;;;0.95;0.70;;;1.80;99.90;;;;;;5042932;28;20076;-72
2022/04/03 07:31:07;;;;;;;0.57;0.38;;;1.90;99.90;;;;;;5040169;28;20379;-72
2022/04/03 07:33:32;;;;;;;0.90;0.70;;;1.90;99.90;;;;;;5044422;28;20072;-72
2022/04/03 07:35:58;;;;;;;1.05;0.60;;;2.00;99.90;;;;;;5044866;28;20246;-72
2022/04/03 07:38:24;;;;;;;10.75;1.27;;;2.10;99.90;;;;;;5041414;28;20116;-72
2022/04/03 07:40:49;;;;;;;1.02;0.50;;;2.10;99.90;;;;;;5036519;28;20048;-77
2022/04/03 07:43:18;;;;;;;1.15;0.77;;;2.20;99.90;;;;;;5019868;28;20467;-72
2022/04/03 07:45:49;;;;;;;1.25;0.60;;;2.30;99.90;;;;;;5031137;28;20090;-72
2022/04/03 07:48:16;;;;;;;0.80;0.52;;;2.40;99.90;;;;;;5052636;28;20474;-72
2022/04/03 07:50:42;;;;;;;1.17;0.55;;;2.50;99.90;;;;;;5039501;28;20289;-73
2022/04/03 07:53:08;;;;;;;2.00;1.10;;;2.60;99.90;;;;;;5017206;28;20684;-72
2022/04/03 07:55:34;;;;;;;1.52;0.80;;;2.70;99.90;;;;;;5029820;28;20284;-72
2022/04/03 07:58:00;;;;;;;0.60;0.40;;;2.80;99.90;;;;;;5034876;28;20080;-72
2022/04/03 08:00:26;;;;;;;0.88;0.60;;;2.80;99.90;;;;;;5015627;28;20139;-72
2022/04/03 08:02:51;;;;;;;0.70;0.50;;;3.00;99.90;;;;;;5019314;28;20040;-72
2022/04/03 08:05:17;;;;;;;0.98;0.73;;;3.10;99.90;;;;;;5033667;28;20398;-72
2022/04/03 08:07:48;;;;;;;0.90;0.50;;;3.20;99.90;;;;;;5034478;28;20037;-72
2022/04/03 08:10:18;;;;;;;0.70;0.45;;;3.30;99.90;;;;;;5055604;28;20037;-72
2022/04/03 08:12:45;;;;;;;2.05;0.50;;;3.40;99.90;;;;;;5015735;28;20040;-72
2022/04/03 08:15:12;;;;;;;0.40;0.30;;;3.50;99.90;;;;;;5049122;28;20037;-72
2022/04/03 08:17:39;;;;;;;0.63;0.40;;;3.50;99.90;;;;;;5034859;28;20029;-72
2022/04/03 08:20:06;;;;;;;0.98;0.25;;;3.60;99.90;;;;;;5035946;28;20445;-72
2022/04/03 08:22:31;;;;;;;0.73;0.40;;;3.80;99.90;;;;;;5036668;28;20503;-72
2022/04/03 08:24:57;;;;;;;2.60;0.47;;;3.90;99.90;;;;;;5033665;28;20061;-72
2022/04/03 08:27:23;;;;;;;1.50;0.43;;;4.10;99.90;;;;;;5035514;28;20380;-72
2022/04/03 08:29:49;;;;;;;0.85;0.50;;;4.20;99.90;;;;;;5034836;28;20067;-72
2022/04/03 08:32:15;;;;;;;0.93;0.52;;;4.20;99.90;;;;;;5036333;28;20049;-72
2022/04/03 08:34:41;;;;;;;1.50;0.38;;;4.30;99.90;;;;;;5031892;28;20414;-72
2022/04/03 08:37:07;;;;;;;0.85;0.25;;;4.30;99.90;;;;;;5047429;28;20030;-74
2022/04/03 08:39:33;;;;;;;0.45;0.30;;;4.40;99.90;;;;;;5052115;28;20032;-72
2022/04/03 08:41:59;;;;;;;2.78;0.40;;;4.40;99.90;;;;;;5036532;28;20045;-73
2022/04/03 08:44:25;;;;;;;0.68;0.30;;;4.40;99.90;;;;;;5032111;28;20049;-71
2022/04/03 08:46:52;;;;;;;0.30;0.28;;;4.50;99.90;;;;;;5035627;28;20072;-72
2022/04/03 08:49:20;;;;;;;0.50;0.30;;;4.60;99.90;;;;;;5034125;28;20116;-72
2022/04/03 08:51:46;;;;;;;0.35;0.25;;;4.60;99.90;;;;;;5037958;28;20044;-72
2022/04/03 08:54:14;;;;;;;0.90;0.38;;;4.60;99.90;;;;;;5021006;28;20033;-73
2022/04/03 08:56:42;;;;;;;0.60;0.43;;;4.70;99.90;;;;;;5033155;28;20065;-72
2022/04/03 08:59:08;;;;;;;2.05;0.50;;;4.70;99.90;;;;;;5019410;28;20043;-73
2022/04/03 09:01:34;;;;;;;1.80;0.75;;;4.70;99.90;;;;;;5031984;28;20040;-73
2022/04/03 09:04:00;;;;;;;2.92;1.73;;;4.70;99.90;;;;;;5035441;28;20041;-73
2022/04/03 09:06:25;;;;;;;1.00;0.70;;;4.80;99.90;;;;;;5035479;28;20040;-73
2022/04/03 09:08:51;;;;;;;0.25;0.22;;;4.90;99.90;;;;;;5032311;28;20053;-73
2022/04/03 09:11:18;;;;;;;1.05;0.50;;;5.00;99.90;;;;;;5031514;28;20037;-72
2022/04/03 09:13:44;;;;;;;1.45;0.60;;;5.00;99.90;;;;;;5037445;28;20039;-73
2022/04/03 09:16:11;;;;;;;1.08;0.45;;;5.00;99.90;;;;;;5052267;28;20389;-73
2022/04/03 09:18:53;;;;;;;4.50;0.68;;;4.90;99.90;;;;;;5030636;28;20534;-72
2022/04/03 09:21:26;;;;;;;0.43;0.40;;;4.90;99.90;;;;;;5048959;28;20049;-73
2022/04/03 09:24:16;;;;;;;0.68;0.38;;;4.90;99.90;;;;;;5035665;28;20493;-72
2022/04/03 09:26:42;;;;;;;0.35;0.20;;;4.90;99.90;;;;;;5034173;28;20122;-75
2022/04/03 09:29:11;;;;;;;0.55;0.38;;;5.00;99.90;;;;;;5050862;28;20399;-72
2022/04/03 09:31:38;;;;;;;0.28;0.28;;;5.10;99.90;;;;;;5031734;28;20037;-72
2022/04/03 09:34:06;;;;;;;0.63;0.40;;;5.30;99.90;;;;;;5036254;28;20052;-73
2022/04/03 09:36:34;;;;;;;0.63;0.40;;;5.30;99.90;;;;;;5034453;28;20033;-72
2022/04/03 09:39:16;;;;;;;0.98;0.35;;;5.40;99.90;;;;;;5018643;28;20041;-72
2022/04/03 09:42:08;;;;;;;0.57;0.30;;;5.30;99.90;;;;;;5036304;28;20485;-72
2022/04/03 09:44:40;;;;;;;0.45;0.40;;;5.30;99.90;;;;;;5025370;28;20045;-72
2022/04/03 09:47:26;;;;;;;0.32;0.20;;;5.20;99.90;;;;;;5032259;28;20030;-73
2022/04/03 09:49:57;;;;;;;0.70;0.35;;;5.20;99.90;;;;;;5047444;28;20136;-73
2022/04/03 09:52:39;;;;;;;1.38;0.30;;;5.30;99.90;;;;;;5033652;28;20034;-73
2022/04/03 09:55:15;;;;;;;0.50;0.30;;;5.40;99.90;;;;;;5033975;28;20045;-73
2022/04/03 09:57:42;;;;;;;0.20;0.20;;;5.40;99.90;;;;;;5018782;28;20043;-72
2022/04/03 10:00:09;;;;;;;1.25;0.35;;;5.50;99.90;;;;;;5039721;28;20517;-72
2022/04/03 10:02:34;;;;;;;0.60;0.30;;;5.50;99.90;;;;;;5031861;28;20498;-73
2022/04/03 10:05:01;;;;;;;0.13;0.10;;;5.50;99.90;;;;;;5037308;28;20087;-72
2022/04/03 10:07:29;;;;;;;0.40;0.20;;;5.50;99.90;;;;;;5039590;28;20397;-73
2022/04/03 10:09:55;;;;;;;0.82;0.20;;;5.50;99.40;;;;;;5041342;28;20585;-72
2022/04/03 10:12:22;;;;;;;0.68;0.40;;;5.50;99.90;;;;;;5034290;28;20033;-73
2022/04/03 10:14:49;;;;;;;0.40;0.20;;;5.50;99.90;;;;;;5025402;28;20048;-72
2022/04/03 10:17:16;;;;;;;0.20;0.13;;;5.60;99.90;;;;;;5018542;28;20040;-72
2022/04/03 10:19:42;;;;;;;1.23;0.20;;;5.60;99.90;;;;;;5038274;28;20475;-72
2022/04/03 10:22:33;;;;;;;3.60;0.60;;;5.60;99.90;;;;;;5040367;28;20510;-73
2022/04/03 10:25:03;;;;;;;0.60;0.20;;;5.70;99.90;;;;;;5048747;28;20092;-73
2022/04/03 10:27:39;;;;;;;4.72;0.40;;;5.80;99.90;;;;;;5025973;28;20045;-72
2022/04/03 10:30:06;;;;;;;1.70;0.50;;;5.80;99.90;;;;;;5034373;28;20124;-72
2022/04/03 10:32:34;;;;;;;0.30;0.20;;;5.80;99.90;;;;;;5059685;28;20064;-72
2022/04/03 10:35:07;;;;;;;0.20;0.20;;;5.70;99.90;;;;;;5042403;28;20084;-73
2022/04/03 10:37:32;;;;;;;0.75;0.43;;;5.60;99.90;;;;;;5041877;28;20498;-73
2022/04/03 10:40:06;;;;;;;0.55;0.30;;;5.50;99.90;;;;;;5036507;28;20080;-72
2022/04/03 10:42:31;;;;;;;0.45;0.30;;;5.40;99.90;;;;;;5040537;28;20045;-73
2022/04/03 10:45:18;;;;;;;0.57;0.30;;;5.40;99.90;;;;;;5036315;28;20045;-73
2022/04/03 10:47:43;;;;;;;0.68;0.30;;;5.30;99.90;;;;;;5050816;28;20052;-73
2022/04/03 10:50:10;;;;;;;0.13;0.10;;;5.30;99.90;;;;;;5026594;28;20037;-73
2022/04/03 10:52:40;;;;;;;0.52;0.38;;;5.30;99.90;;;;;;5055976;28;20175;-73
2022/04/03 10:55:16;;;;;;;1.52;0.70;;;5.40;99.90;;;;;;5035219;28;20029;-73
2022/04/03 10:57:42;;;;;;;1.38;0.50;;;5.50;99.90;;;;;;5047767;28;20056;-73
2022/04/03 11:00:14;;;;;;;0.60;0.50;;;5.70;99.90;;;;;;5041559;28;20438;-73
2022/04/03 11:02:55;;;;;;;0.22;0.22;;;5.70;99.90;;;;;;5035939;28;20495;-72
2022/04/03 11:05:26;;;;;;;0.20;0.13;;;5.80;99.90;;;;;;5059767;28;20047;-72
2022/04/03 11:07:52;;;;;;;0.10;0.10;;;5.80;99.90;;;;;;5051223;28;20125;-73
2022/04/03 11:10:52;;;;;;;0.43;0.30;;;5.90;99.50;;;;;;5036313;28;20049;-73
2022/04/03 11:13:31;;;;;;;0.38;0.20;;;5.90;99.90;;;;;;5043386;28;20116;-73
2022/04/03 11:16:03;;;;;;;0.80;0.40;;;6.00;99.90;;;;;;5032265;28;20076;-73
2022/04/03 11:18:29;;;;;;;1.00;0.22;;;6.20;99.70;;;;;;5022500;28;20042;-73
2022/04/03 11:21:11;;;;;;;0.80;0.20;;;6.30;97.00;;;;;;5050659;28;20090;-73
2022/04/03 11:23:40;;;;;;;0.35;0.20;;;6.40;92.80;;;;;;5048614;28;20048;-73
2022/04/03 11:26:07;;;;;;;0.95;0.30;;;6.60;91.80;;;;;;5038729;28;20475;-72
2022/04/03 11:28:36;;;;;;;0.20;0.20;;;6.70;94.10;;;;;;5038175;28;20045;-72
2022/04/03 11:31:04;;;;;;;0.35;0.20;;;6.70;93.90;;;;;;5045636;28;20037;-72
2022/04/03 11:33:31;;;;;;;3.85;0.50;;;6.70;95.80;;;;;;5032168;28;20045;-72
2022/04/03 11:36:03;;;;;;;0.43;0.20;;;6.60;97.00;;;;;;5036981;28;20433;-72
2022/04/03 11:38:43;;;;;;;0.28;0.10;;;6.70;96.70;;;;;;5034303;28;20029;-73
2022/04/03 11:41:17;;;;;;;0.47;0.22;;;6.60;95.40;;;;;;5051644;28;20073;-73
2022/04/03 11:43:43;;;;;;;0.22;0.20;;;6.60;95.20;;;;;;5041269;28;20065;-73
2022/04/03 11:46:09;;;;;;;0.30;0.20;;;6.60;96.10;;;;;;5037223;28;20045;-73
2022/04/03 11:48:42;;;;;;;0.40;0.20;;;6.60;95.80;;;;;;5033740;28;20383;-72
2022/04/03 11:51:11;;;;;;;0.75;0.35;;;6.60;96.30;;;;;;5030842;28;20046;-72
2022/04/03 11:53:38;;;;;;;3.72;0.10;;;6.70;95.40;;;;;;5031706;28;20037;-72
2022/04/03 11:56:18;;;;;;;1.02;0.30;;;6.70;94.30;;;;;;5029221;28;20033;-72
2022/04/03 11:58:57;;;;;;;0.68;0.40;;;6.70;90.70;;;;;;5028390;28;20037;-72
2022/04/03 12:01:31;;;;;;;0.20;0.10;;;6.70;94.30;;;;;;5036937;28;20517;-72
2022/04/03 12:04:03;;;;;;;0.45;0.20;;;6.80;92.70;;;;;;5041804;28;20086;-73
2022/04/03 12:06:32;;;;;;;0.82;0.40;;;6.80;91.80;;;;;;5044898;28;20095;-73
2022/04/03 12:08:58;;;;;;;0.35;0.20;;;6.80;94.90;;;;;;5040685;28;20052;-72
2022/04/03 12:11:27;;;;;;;0.32;0.22;;;6.90;95.40;;;;;;5027293;28;20049;-73
2022/04/03 12:13:57;;;;;;;0.20;0.20;;;7.00;94.80;;;;;;5050878;28;20399;-72
2022/04/03 12:16:26;;;;;;;0.30;0.20;;;7.00;94.90;;;;;;5036521;28;20674;-72
2022/04/03 12:18:57;;;;;;;0.75;0.30;;;7.00;93.70;;;;;;5033720;28;20048;-72
2022/04/03 12:22:04;;;;;;;0.25;0.17;;;7.00;93.70;;;;;;5039222;28;20060;-72
2022/04/03 12:24:31;;;;;;;0.03;0.00;;;7.10;94.70;;;;;;5019487;28;20061;-73
2022/04/03 12:27:12;;;;;;;0.17;0.10;;;7.10;93.00;;;;;;5032089;28;20152;-72
2022/04/03 12:29:39;;;;;;;0.20;0.10;;;7.20;91.50;;;;;;5024200;28;20086;-72
2022/04/03 12:32:07;;;;;;;0.10;0.10;;;7.20;92.20;;;;;;5039551;28;20084;-72
2022/04/03 12:34:40;;;;;;;0.20;0.10;;;7.20;90.90;;;;;;5051454;28;20041;-72
2022/04/03 12:37:07;;;;;;;0.43;0.20;;;7.40;91.20;;;;;;5038626;28;20132;-72
2022/04/03 12:39:36;;;;;;;0.05;0.05;;;7.50;91.70;;;;;;5026169;28;20529;-73
2022/04/03 12:42:12;;;;;;;0.50;0.20;;;7.50;91.50;;;;;;5018853;28;20037;-72
2022/04/03 12:44:42;;;;;;;0.10;0.00;;;7.60;91.10;;;;;;5037548;28;20124;-72
2022/04/03 12:47:18;;;;;;;0.40;0.20;;;7.50;89.60;;;;;;5019854;28;20136;-72
2022/04/03 12:50:07;;;;;;;0.10;0.10;;;7.50;90.80;;;;;;5035562;28;20056;-72
2022/04/03 12:52:44;;;;;;;0.22;0.20;;;7.50;91.30;;;;;;5027733;28;20131;-72
2022/04/03 12:55:32;;;;;;;0.20;0.20;;;7.40;88.80;;;;;;5047705;28;20508;-72
2022/04/03 13:01:11;;;;;;;0.60;0.15;;;7.20;90.50;;;;;;5034724;28;20483;-72